Meath Environmental Platform

Observations for Trim Market St

Time AQI Temp °C Hum % Pres Pa CO μg/m³ H₂S μg/m³ NO μg/m³ NO₂ μg/m³ O₃ μg/m³ SO₂ μg/m³ PM1 μg/m³ PM2.5 μg/m³ PM10 μg/m³
Friday 10 July 2026
13:04 1 39.1 28 66,857 0 0 0 0 20.7 2.34 1.43 4.46 4.91
13:00 1 38.7 30 66,873 0 0 0 0 18.6 2.99 2.14 4.96 5.46
12:56 1 38.2 30 66,760 0 0 0 2.92 11.45 1.61 2.14 5.46 6.01
12:50 1 37.7 31 66,679 0 0 0 0 17.18 1.48 2.14 5.43 5.97
12:49 1 37.7 31 66,690 0 0 0 0 20.26 2.33 1.43 4.9 5.39
12:48 1 37.6 31 66,704 0.13 0 0 9.43 17.47 1.1 2.14 4.9 5.39
12:46 1 37.6 31 66,688 0 0 0 0 15.13 1.84 2.14 5.44 5.99
12:45 1 37.6 31 66,675 0 0 0 3.11 28.3 1.82 2.14 4.89 5.38
12:44 1 37.5 31 66,653 0 0 0 0 10.73 1.95 2.14 5.42 5.97
12:42 1 37.3 32 66,657 0 0 0 4.4 19.74 1.11 1.43 4.31 4.75
12:41 1 37.2 32 66,633 0 0 0 0 15.89 1.8 2.14 4.85 5.33
12:40 1 37.1 32 66,629 0 0 0 6.43 28.66 1.75 2.85 5.93 6.52
12:39 1 37.1 32 66,631 0 0 0 4.45 21.72 1.74 1.43 4.85 4.96
12:35 1 37.1 31 66,623 0 0 0 14.02 8.6 0 2.85 6.51 7.52
12:32 1 37.3 31 66,614 0 0 0 0 19.92 1.12 2.85 5.97 6.67
12:27 1 36.7 33 66,560 0 0 0 14.57 24.74 1.08 1.43 4.28 4.98
12:26 1 36.6 33 66,545 0 0 0 0 18.95 1.39 1.43 4.27 4.7
12:20 1 35.8 33 66,505 0 2.52 0 5.84 30.48 1.61 2.14 5.33 5.86
12:19 1 35.8 33 66,489 0 0 0 7.26 22 1.43 2.14 5.34 5.87
12:18 1 35.8 33 66,501 0 0 0 0 19.11 1.13 2.85 5.88 6.47